Livingston, KY (40445)

8:34 AM EDT on July 23, 2016 (GMT -0400)
Denny Subdivision | | Change Station

Elev 1181 ft 37.31 °N, 84.39 °W | Updated 9 seconds ago

Rain
Rain
76.3 °F
Feels Like 77 °F
N
2.0
Wind Variable Wind from ESE
Gusts 2.0 mph

Today
High -- | Low -- °F
--% Chance of Precip.
Yesterday
High -- | Low -- °F
Precip. -- in
Pressure 30.02 in
Visibility 10.0 miles
Clouds Few 11000 ft
Heat Index 77 °F
Dew Point 73 °F
Humidity 90%
Rainfall 0.00 in
Snow Depth Not available.
6:34 AM 8:51 PM
Waning Gibbous, 85% visible
METAR KLOZ 231153Z AUTO 00000KT 10SM FEW110 24/21 A3006 RMK AO2 SLP164 70007 T02390206 10239 20217 53003
Pressure 30.02 in
Visibility 10.0 miles
Clouds Few 11000 ft
Heat Index 77 °F
Dew Point 73 °F
Humidity 90%
Rainfall 0.00 in
Snow Depth Not available.
6:34 AM 8:51 PM
Waning Gibbous, 85% visible
METAR KLOZ 231153Z AUTO 00000KT 10SM FEW110 24/21 A3006 RMK AO2 SLP164 70007 T02390206 10239 20217 53003

10-Day Weather Forecast

Almanac

Astronomy

Jul. 23, 2016 Rise Set
Actual Time
Civil Twilight
Nautical Twilight
Astronomical Twilight
Moon
Length of Visible Light
Length of Day
Tomorrow will be .
, % of the Moon is Illuminated

Today's Extremes

State Highs State Lows

Community

WunderPhotos

Upload Photos

1,926,815 photos uploaded!

WunderBlog® & News

Nearby

Air Quality

  Air Quality AQ Index Pollutant
Not available.

Snow Depth

Station Depth Elevation

Earthquake Activity

City Distance Mag. Time & Date
Minimum magnitude displayed is 2.5.

Coastal Water Temperatures

Place Temperature

Stations

Nearby Weather Stations

Station Location Temp. Windchill Dew Point Humidity Wind Precip. Elev Updated Type
                   

Watches & Warnings

There are currently no watches in effect.